sensor_id;sensor_type;location;lat;lon;timestamp;P1;durP1;ratioP1;P2;durP2;ratioP2
34102;SDS011;20381;54.498;18.206;2022-12-10T00:01:09;40.15;;;25.08;;
34102;SDS011;20381;54.498;18.206;2022-12-10T00:03:41;41.10;;;24.20;;
34102;SDS011;20381;54.498;18.206;2022-12-10T00:06:12;44.38;;;26.27;;
34102;SDS011;20381;54.498;18.206;2022-12-10T00:08:45;44.15;;;25.68;;
34102;SDS011;20381;54.498;18.206;2022-12-10T00:11:13;45.28;;;25.17;;
34102;SDS011;20381;54.498;18.206;2022-12-10T00:13:41;42.93;;;26.57;;
34102;SDS011;20381;54.498;18.206;2022-12-10T00:16:09;36.85;;;22.48;;
34102;SDS011;20381;54.498;18.206;2022-12-10T00:18:39;36.15;;;20.77;;
34102;SDS011;20381;54.498;18.206;2022-12-10T00:21:06;33.70;;;20.85;;
34102;SDS011;20381;54.498;18.206;2022-12-10T00:23:40;29.10;;;19.23;;
34102;SDS011;20381;54.498;18.206;2022-12-10T00:26:11;45.43;;;24.80;;
34102;SDS011;20381;54.498;18.206;2022-12-10T00:28:40;41.23;;;26.23;;
34102;SDS011;20381;54.498;18.206;2022-12-10T00:31:09;43.68;;;26.07;;
34102;SDS011;20381;54.498;18.206;2022-12-10T00:33:40;37.17;;;20.97;;
34102;SDS011;20381;54.498;18.206;2022-12-10T00:36:11;32.60;;;21.12;;
34102;SDS011;20381;54.498;18.206;2022-12-10T00:38:42;41.40;;;24.57;;
34102;SDS011;20381;54.498;18.206;2022-12-10T00:41:10;40.70;;;23.70;;
34102;SDS011;20381;54.498;18.206;2022-12-10T00:43:38;43.73;;;24.43;;
34102;SDS011;20381;54.498;18.206;2022-12-10T00:46:05;31.68;;;19.82;;
34102;SDS011;20381;54.498;18.206;2022-12-10T00:48:32;37.42;;;22.42;;
34102;SDS011;20381;54.498;18.206;2022-12-10T00:51:00;31.33;;;19.73;;
34102;SDS011;20381;54.498;18.206;2022-12-10T00:53:30;30.02;;;18.95;;
34102;SDS011;20381;54.498;18.206;2022-12-10T00:56:00;52.43;;;29.50;;
34102;SDS011;20381;54.498;18.206;2022-12-10T00:58:30;39.20;;;24.23;;
34102;SDS011;20381;54.498;18.206;2022-12-10T01:01:12;40.95;;;24.10;;
34102;SDS011;20381;54.498;18.206;2022-12-10T01:03:46;33.78;;;19.67;;
34102;SDS011;20381;54.498;18.206;2022-12-10T01:08:48;36.58;;;24.27;;
34102;SDS011;20381;54.498;18.206;2022-12-10T01:11:18;41.98;;;23.35;;
34102;SDS011;20381;54.498;18.206;2022-12-10T01:13:47;36.17;;;21.23;;
34102;SDS011;20381;54.498;18.206;2022-12-10T01:18:43;37.55;;;23.40;;
34102;SDS011;20381;54.498;18.206;2022-12-10T01:21:11;34.80;;;22.63;;
34102;SDS011;20381;54.498;18.206;2022-12-10T01:23:41;33.30;;;21.95;;
34102;SDS011;20381;54.498;18.206;2022-12-10T01:26:12;36.68;;;22.62;;
34102;SDS011;20381;54.498;18.206;2022-12-10T01:28:45;40.20;;;24.85;;
34102;SDS011;20381;54.498;18.206;2022-12-10T01:31:14;39.88;;;23.22;;
34102;SDS011;20381;54.498;18.206;2022-12-10T01:33:44;35.20;;;19.92;;
34102;SDS011;20381;54.498;18.206;2022-12-10T01:36:12;37.35;;;21.87;;
34102;SDS011;20381;54.498;18.206;2022-12-10T01:38:46;32.88;;;20.68;;
34102;SDS011;20381;54.498;18.206;2022-12-10T01:41:15;31.70;;;21.00;;
34102;SDS011;20381;54.498;18.206;2022-12-10T01:43:56;29.42;;;19.45;;
34102;SDS011;20381;54.498;18.206;2022-12-10T01:46:30;34.25;;;20.68;;
34102;SDS011;20381;54.498;18.206;2022-12-10T01:49:01;35.08;;;21.70;;
34102;SDS011;20381;54.498;18.206;2022-12-10T01:51:32;37.17;;;22.27;;
34102;SDS011;20381;54.498;18.206;2022-12-10T01:54:02;43.35;;;26.50;;
34102;SDS011;20381;54.498;18.206;2022-12-10T01:56:35;41.65;;;25.25;;
34102;SDS011;20381;54.498;18.206;2022-12-10T01:59:05;41.25;;;24.95;;
34102;SDS011;20381;54.498;18.206;2022-12-10T02:07:52;35.60;;;22.07;;
34102;SDS011;20381;54.498;18.206;2022-12-10T02:13:33;34.45;;;21.12;;
34102;SDS011;20381;54.498;18.206;2022-12-10T02:16:16;36.48;;;22.13;;
34102;SDS011;20381;54.498;18.206;2022-12-10T02:19:05;38.30;;;22.45;;
34102;SDS011;20381;54.498;18.206;2022-12-10T02:21:34;31.27;;;19.23;;
34102;SDS011;20381;54.498;18.206;2022-12-10T02:24:10;33.28;;;20.92;;
34102;SDS011;20381;54.498;18.206;2022-12-10T02:29:38;31.52;;;17.62;;
34102;SDS011;20381;54.498;18.206;2022-12-10T02:32:08;25.90;;;18.35;;
34102;SDS011;20381;54.498;18.206;2022-12-10T02:34:41;31.02;;;20.43;;
34102;SDS011;20381;54.498;18.206;2022-12-10T02:37:12;29.00;;;19.17;;
34102;SDS011;20381;54.498;18.206;2022-12-10T02:39:57;23.67;;;17.17;;
34102;SDS011;20381;54.498;18.206;2022-12-10T02:42:29;24.02;;;17.00;;
34102;SDS011;20381;54.498;18.206;2022-12-10T02:44:58;26.02;;;16.23;;
34102;SDS011;20381;54.498;18.206;2022-12-10T02:47:26;21.70;;;15.18;;
34102;SDS011;20381;54.498;18.206;2022-12-10T02:49:54;22.07;;;14.47;;
34102;SDS011;20381;54.498;18.206;2022-12-10T02:52:23;20.17;;;14.55;;
34102;SDS011;20381;54.498;18.206;2022-12-10T02:54:50;21.77;;;13.58;;
34102;SDS011;20381;54.498;18.206;2022-12-10T03:02:49;16.85;;;11.93;;
34102;SDS011;20381;54.498;18.206;2022-12-10T03:08:12;15.58;;;11.22;;
34102;SDS011;20381;54.498;18.206;2022-12-10T03:10:43;18.90;;;12.58;;
34102;SDS011;20381;54.498;18.206;2022-12-10T03:13:19;18.65;;;12.30;;
34102;SDS011;20381;54.498;18.206;2022-12-10T03:15:50;18.60;;;13.48;;
34102;SDS011;20381;54.498;18.206;2022-12-10T03:18:19;19.52;;;13.43;;
34102;SDS011;20381;54.498;18.206;2022-12-10T03:20:49;18.32;;;13.22;;
34102;SDS011;20381;54.498;18.206;2022-12-10T03:23:19;17.82;;;11.93;;
34102;SDS011;20381;54.498;18.206;2022-12-10T03:25:49;19.42;;;13.40;;
34102;SDS011;20381;54.498;18.206;2022-12-10T03:28:18;16.85;;;12.40;;
34102;SDS011;20381;54.498;18.206;2022-12-10T03:30:45;20.12;;;14.28;;
34102;SDS011;20381;54.498;18.206;2022-12-10T03:33:14;19.92;;;13.90;;
34102;SDS011;20381;54.498;18.206;2022-12-10T03:35:41;17.87;;;13.75;;
34102;SDS011;20381;54.498;18.206;2022-12-10T03:38:09;17.27;;;13.15;;
34102;SDS011;20381;54.498;18.206;2022-12-10T03:40:36;19.55;;;13.55;;
34102;SDS011;20381;54.498;18.206;2022-12-10T03:43:02;19.10;;;13.53;;
34102;SDS011;20381;54.498;18.206;2022-12-10T03:45:29;20.50;;;13.37;;
34102;SDS011;20381;54.498;18.206;2022-12-10T03:47:56;21.20;;;14.93;;
34102;SDS011;20381;54.498;18.206;2022-12-10T03:50:22;19.73;;;13.18;;
34102;SDS011;20381;54.498;18.206;2022-12-10T03:52:49;21.25;;;14.13;;
34102;SDS011;20381;54.498;18.206;2022-12-10T03:55:15;22.17;;;13.88;;
34102;SDS011;20381;54.498;18.206;2022-12-10T03:57:42;20.10;;;13.20;;
34102;SDS011;20381;54.498;18.206;2022-12-10T04:00:09;20.23;;;14.63;;
34102;SDS011;20381;54.498;18.206;2022-12-10T04:02:37;18.80;;;13.08;;
34102;SDS011;20381;54.498;18.206;2022-12-10T04:05:04;24.70;;;16.73;;
34102;SDS011;20381;54.498;18.206;2022-12-10T04:07:32;21.20;;;13.93;;
34102;SDS011;20381;54.498;18.206;2022-12-10T04:09:59;16.07;;;11.97;;
34102;SDS011;20381;54.498;18.206;2022-12-10T04:12:26;16.17;;;12.30;;
34102;SDS011;20381;54.498;18.206;2022-12-10T04:14:52;19.37;;;13.25;;
34102;SDS011;20381;54.498;18.206;2022-12-10T04:17:37;14.90;;;10.65;;
34102;SDS011;20381;54.498;18.206;2022-12-10T04:20:04;20.17;;;12.18;;
34102;SDS011;20381;54.498;18.206;2022-12-10T04:22:34;13.93;;;11.00;;
34102;SDS011;20381;54.498;18.206;2022-12-10T04:25:19;16.07;;;12.07;;
34102;SDS011;20381;54.498;18.206;2022-12-10T04:28:04;16.70;;;11.48;;
34102;SDS011;20381;54.498;18.206;2022-12-10T04:30:30;16.65;;;11.33;;
34102;SDS011;20381;54.498;18.206;2022-12-10T04:32:57;14.90;;;11.35;;
34102;SDS011;20381;54.498;18.206;2022-12-10T04:35:23;14.78;;;11.50;;
34102;SDS011;20381;54.498;18.206;2022-12-10T04:37:50;15.08;;;10.28;;
34102;SDS011;20381;54.498;18.206;2022-12-10T04:40:17;14.90;;;9.45;;
34102;SDS011;20381;54.498;18.206;2022-12-10T04:42:43;13.27;;;9.50;;
34102;SDS011;20381;54.498;18.206;2022-12-10T04:45:10;13.00;;;10.30;;
34102;SDS011;20381;54.498;18.206;2022-12-10T04:47:36;14.73;;;10.10;;
34102;SDS011;20381;54.498;18.206;2022-12-10T04:50:03;11.90;;;9.50;;
34102;SDS011;20381;54.498;18.206;2022-12-10T04:52:31;15.00;;;10.70;;
34102;SDS011;20381;54.498;18.206;2022-12-10T04:54:58;15.78;;;10.50;;
34102;SDS011;20381;54.498;18.206;2022-12-10T04:57:25;16.75;;;12.07;;
34102;SDS011;20381;54.498;18.206;2022-12-10T04:59:52;14.15;;;10.45;;
34102;SDS011;20381;54.498;18.206;2022-12-10T05:02:18;13.53;;;9.63;;
34102;SDS011;20381;54.498;18.206;2022-12-10T05:04:45;16.57;;;10.95;;
34102;SDS011;20381;54.498;18.206;2022-12-10T05:07:15;13.80;;;9.98;;
34102;SDS011;20381;54.498;18.206;2022-12-10T05:09:42;12.50;;;10.30;;
34102;SDS011;20381;54.498;18.206;2022-12-10T05:12:09;17.62;;;12.53;;
34102;SDS011;20381;54.498;18.206;2022-12-10T05:14:36;13.95;;;10.35;;
34102;SDS011;20381;54.498;18.206;2022-12-10T05:17:03;14.15;;;10.80;;
34102;SDS011;20381;54.498;18.206;2022-12-10T05:19:29;16.80;;;10.95;;
34102;SDS011;20381;54.498;18.206;2022-12-10T05:21:56;14.28;;;9.90;;
34102;SDS011;20381;54.498;18.206;2022-12-10T05:24:43;14.25;;;10.20;;
34102;SDS011;20381;54.498;18.206;2022-12-10T05:27:09;13.48;;;10.95;;
34102;SDS011;20381;54.498;18.206;2022-12-10T05:29:36;15.63;;;11.48;;
34102;SDS011;20381;54.498;18.206;2022-12-10T05:32:03;16.10;;;11.73;;
34102;SDS011;20381;54.498;18.206;2022-12-10T05:34:31;13.75;;;10.38;;
34102;SDS011;20381;54.498;18.206;2022-12-10T05:36:58;14.35;;;11.00;;
34102;SDS011;20381;54.498;18.206;2022-12-10T05:39:24;14.33;;;9.78;;
34102;SDS011;20381;54.498;18.206;2022-12-10T05:41:51;13.50;;;10.30;;
34102;SDS011;20381;54.498;18.206;2022-12-10T05:44:18;16.55;;;11.90;;
34102;SDS011;20381;54.498;18.206;2022-12-10T05:46:44;13.70;;;9.73;;
34102;SDS011;20381;54.498;18.206;2022-12-10T05:49:11;14.83;;;9.98;;
34102;SDS011;20381;54.498;18.206;2022-12-10T05:51:38;14.05;;;10.30;;
34102;SDS011;20381;54.498;18.206;2022-12-10T05:54:05;16.48;;;11.10;;
34102;SDS011;20381;54.498;18.206;2022-12-10T05:56:34;12.33;;;10.00;;
34102;SDS011;20381;54.498;18.206;2022-12-10T05:59:02;12.75;;;9.78;;
34102;SDS011;20381;54.498;18.206;2022-12-10T06:01:32;15.25;;;10.53;;
34102;SDS011;20381;54.498;18.206;2022-12-10T06:04:01;11.57;;;9.45;;
34102;SDS011;20381;54.498;18.206;2022-12-10T06:06:34;15.60;;;11.45;;
34102;SDS011;20381;54.498;18.206;2022-12-10T06:09:02;16.23;;;11.75;;
34102;SDS011;20381;54.498;18.206;2022-12-10T06:11:31;12.85;;;9.30;;
34102;SDS011;20381;54.498;18.206;2022-12-10T06:13:57;9.93;;;7.83;;
34102;SDS011;20381;54.498;18.206;2022-12-10T06:16:25;11.50;;;9.73;;
34102;SDS011;20381;54.498;18.206;2022-12-10T06:18:57;14.68;;;11.53;;
34102;SDS011;20381;54.498;18.206;2022-12-10T06:21:24;14.18;;;10.95;;
34102;SDS011;20381;54.498;18.206;2022-12-10T06:23:50;14.77;;;11.90;;
34102;SDS011;20381;54.498;18.206;2022-12-10T06:28:47;14.60;;;10.23;;
34102;SDS011;20381;54.498;18.206;2022-12-10T06:31:15;12.25;;;9.78;;
34102;SDS011;20381;54.498;18.206;2022-12-10T06:36:09;11.90;;;8.50;;
34102;SDS011;20381;54.498;18.206;2022-12-10T06:38:39;14.65;;;10.23;;
34102;SDS011;20381;54.498;18.206;2022-12-10T06:41:06;15.55;;;11.25;;
34102;SDS011;20381;54.498;18.206;2022-12-10T06:43:36;11.78;;;9.38;;
34102;SDS011;20381;54.498;18.206;2022-12-10T06:46:04;13.78;;;10.55;;
34102;SDS011;20381;54.498;18.206;2022-12-10T06:48:39;14.70;;;11.12;;
34102;SDS011;20381;54.498;18.206;2022-12-10T06:53:35;15.28;;;11.38;;
34102;SDS011;20381;54.498;18.206;2022-12-10T06:56:03;15.43;;;11.10;;
34102;SDS011;20381;54.498;18.206;2022-12-10T06:58:32;13.95;;;10.53;;
34102;SDS011;20381;54.498;18.206;2022-12-10T07:01:07;14.45;;;11.08;;
34102;SDS011;20381;54.498;18.206;2022-12-10T07:03:47;17.12;;;12.18;;
34102;SDS011;20381;54.498;18.206;2022-12-10T07:06:22;15.38;;;11.38;;
34102;SDS011;20381;54.498;18.206;2022-12-10T07:08:51;17.52;;;12.75;;
34102;SDS011;20381;54.498;18.206;2022-12-10T07:11:19;20.00;;;14.50;;
34102;SDS011;20381;54.498;18.206;2022-12-10T07:13:48;22.70;;;15.05;;
34102;SDS011;20381;54.498;18.206;2022-12-10T07:16:16;20.30;;;13.78;;
34102;SDS011;20381;54.498;18.206;2022-12-10T07:18:49;15.08;;;11.50;;
34102;SDS011;20381;54.498;18.206;2022-12-10T07:21:28;17.82;;;12.90;;
34102;SDS011;20381;54.498;18.206;2022-12-10T07:23:58;20.12;;;13.55;;
34102;SDS011;20381;54.498;18.206;2022-12-10T07:26:32;20.37;;;15.05;;
34102;SDS011;20381;54.498;18.206;2022-12-10T07:29:03;20.70;;;13.90;;
34102;SDS011;20381;54.498;18.206;2022-12-10T07:31:32;20.65;;;15.15;;
34102;SDS011;20381;54.498;18.206;2022-12-10T07:34:00;17.02;;;13.68;;
34102;SDS011;20381;54.498;18.206;2022-12-10T07:36:27;20.95;;;15.08;;
34102;SDS011;20381;54.498;18.206;2022-12-10T07:41:21;19.62;;;15.00;;
34102;SDS011;20381;54.498;18.206;2022-12-10T07:43:49;18.02;;;13.13;;
34102;SDS011;20381;54.498;18.206;2022-12-10T07:48:46;18.40;;;13.65;;
34102;SDS011;20381;54.498;18.206;2022-12-10T07:51:15;18.30;;;13.22;;
34102;SDS011;20381;54.498;18.206;2022-12-10T07:53:44;18.35;;;13.35;;
34102;SDS011;20381;54.498;18.206;2022-12-10T07:56:11;17.85;;;13.25;;
34102;SDS011;20381;54.498;18.206;2022-12-10T07:58:43;20.92;;;15.23;;
34102;SDS011;20381;54.498;18.206;2022-12-10T08:01:10;19.62;;;14.75;;
34102;SDS011;20381;54.498;18.206;2022-12-10T08:03:42;18.40;;;13.88;;
34102;SDS011;20381;54.498;18.206;2022-12-10T08:06:10;19.97;;;14.93;;
34102;SDS011;20381;54.498;18.206;2022-12-10T08:08:41;20.62;;;15.30;;
34102;SDS011;20381;54.498;18.206;2022-12-10T08:11:10;24.25;;;16.85;;
34102;SDS011;20381;54.498;18.206;2022-12-10T08:13:39;71.87;;;47.90;;
34102;SDS011;20381;54.498;18.206;2022-12-10T08:18:45;37.05;;;28.23;;
34102;SDS011;20381;54.498;18.206;2022-12-10T08:21:15;31.55;;;23.70;;
34102;SDS011;20381;54.498;18.206;2022-12-10T08:23:44;99.03;;;56.73;;
34102;SDS011;20381;54.498;18.206;2022-12-10T08:26:13;49.58;;;33.67;;
34102;SDS011;20381;54.498;18.206;2022-12-10T08:28:43;63.38;;;39.10;;
34102;SDS011;20381;54.498;18.206;2022-12-10T08:31:11;39.48;;;28.02;;
34102;SDS011;20381;54.498;18.206;2022-12-10T08:33:39;38.78;;;27.95;;
34102;SDS011;20381;54.498;18.206;2022-12-10T10:45:47;24.72;;;19.10;;
34102;SDS011;20381;54.498;18.206;2022-12-10T10:48:22;25.40;;;18.00;;
34102;SDS011;20381;54.498;18.206;2022-12-10T10:50:55;21.95;;;16.52;;
34102;SDS011;20381;54.498;18.206;2022-12-10T10:53:43;21.30;;;15.23;;
34102;SDS011;20381;54.498;18.206;2022-12-10T10:56:16;21.02;;;15.50;;
34102;SDS011;20381;54.498;18.206;2022-12-10T10:58:56;30.95;;;18.02;;
34102;SDS011;20381;54.498;18.206;2022-12-10T11:04:24;22.00;;;15.55;;
34102;SDS011;20381;54.498;18.206;2022-12-10T11:07:00;22.17;;;16.52;;
34102;SDS011;20381;54.498;18.206;2022-12-10T11:09:32;21.30;;;16.23;;
34102;SDS011;20381;54.498;18.206;2022-12-10T11:12:21;24.35;;;17.27;;
34102;SDS011;20381;54.498;18.206;2022-12-10T11:14:40;24.67;;;14.65;;
34102;SDS011;20381;54.498;18.206;2022-12-10T11:19:57;21.65;;;14.80;;
34102;SDS011;20381;54.498;18.206;2022-12-10T11:22:57;21.48;;;14.90;;
34102;SDS011;20381;54.498;18.206;2022-12-10T11:26:11;18.75;;;13.40;;
34102;SDS011;20381;54.498;18.206;2022-12-10T11:36:34;26.87;;;18.85;;
34102;SDS011;20381;54.498;18.206;2022-12-10T11:39:43;26.05;;;17.42;;
34102;SDS011;20381;54.498;18.206;2022-12-10T11:42:36;31.12;;;21.12;;
34102;SDS011;20381;54.498;18.206;2022-12-10T11:51:17;25.85;;;17.87;;
34102;SDS011;20381;54.498;18.206;2022-12-10T11:56:43;24.43;;;15.88;;
34102;SDS011;20381;54.498;18.206;2022-12-10T11:59:24;27.80;;;17.25;;
34102;SDS011;20381;54.498;18.206;2022-12-10T12:11:11;23.73;;;17.48;;
34102;SDS011;20381;54.498;18.206;2022-12-10T12:14:19;32.78;;;22.75;;
34102;SDS011;20381;54.498;18.206;2022-12-10T12:17:02;29.60;;;19.27;;
34102;SDS011;20381;54.498;18.206;2022-12-10T12:19:40;32.17;;;22.67;;
34102;SDS011;20381;54.498;18.206;2022-12-10T12:22:56;47.00;;;27.62;;
34102;SDS011;20381;54.498;18.206;2022-12-10T12:25:02;40.63;;;25.32;;
34102;SDS011;20381;54.498;18.206;2022-12-10T12:27:36;41.20;;;25.70;;
34102;SDS011;20381;54.498;18.206;2022-12-10T12:30:14;33.63;;;21.90;;
34102;SDS011;20381;54.498;18.206;2022-12-10T12:35:38;34.38;;;20.50;;
34102;SDS011;20381;54.498;18.206;2022-12-10T12:38:26;28.92;;;19.87;;
34102;SDS011;20381;54.498;18.206;2022-12-10T12:41:17;24.45;;;17.52;;
34102;SDS011;20381;54.498;18.206;2022-12-10T12:43:39;31.23;;;20.32;;
34102;SDS011;20381;54.498;18.206;2022-12-10T12:46:18;31.23;;;20.10;;
34102;SDS011;20381;54.498;18.206;2022-12-10T12:49:08;25.10;;;17.15;;
34102;SDS011;20381;54.498;18.206;2022-12-10T12:51:33;38.58;;;25.90;;
34102;SDS011;20381;54.498;18.206;2022-12-10T12:54:16;37.13;;;25.60;;
34102;SDS011;20381;54.498;18.206;2022-12-10T13:02:45;29.10;;;20.05;;
34102;SDS011;20381;54.498;18.206;2022-12-10T13:05:40;37.63;;;25.43;;
34102;SDS011;20381;54.498;18.206;2022-12-10T13:29:53;42.40;;;27.95;;
34102;SDS011;20381;54.498;18.206;2022-12-10T14:00:35;44.77;;;27.58;;
34102;SDS011;20381;54.498;18.206;2022-12-10T14:06:15;43.20;;;26.30;;
34102;SDS011;20381;54.498;18.206;2022-12-10T14:11:34;68.28;;;39.30;;
34102;SDS011;20381;54.498;18.206;2022-12-10T14:14:06;61.40;;;37.65;;
34102;SDS011;20381;54.498;18.206;2022-12-10T14:16:37;46.88;;;31.82;;
34102;SDS011;20381;54.498;18.206;2022-12-10T14:19:08;58.30;;;35.70;;
34102;SDS011;20381;54.498;18.206;2022-12-10T14:21:39;86.05;;;50.45;;
34102;SDS011;20381;54.498;18.206;2022-12-10T14:27:00;47.10;;;30.27;;
34102;SDS011;20381;54.498;18.206;2022-12-10T14:29:30;49.65;;;30.43;;
34102;SDS011;20381;54.498;18.206;2022-12-10T14:31:57;60.53;;;38.40;;
34102;SDS011;20381;54.498;18.206;2022-12-10T14:34:25;47.53;;;29.37;;
34102;SDS011;20381;54.498;18.206;2022-12-10T14:36:54;44.18;;;28.62;;
34102;SDS011;20381;54.498;18.206;2022-12-10T14:39:29;52.53;;;30.72;;
34102;SDS011;20381;54.498;18.206;2022-12-10T14:41:59;38.58;;;24.35;;
34102;SDS011;20381;54.498;18.206;2022-12-10T14:44:29;40.28;;;24.65;;
34102;SDS011;20381;54.498;18.206;2022-12-10T14:47:06;49.38;;;29.52;;
34102;SDS011;20381;54.498;18.206;2022-12-10T14:49:37;45.43;;;26.20;;
34102;SDS011;20381;54.498;18.206;2022-12-10T14:52:18;40.20;;;24.75;;
34102;SDS011;20381;54.498;18.206;2022-12-10T14:54:46;32.93;;;21.90;;
34102;SDS011;20381;54.498;18.206;2022-12-10T14:57:27;36.65;;;24.12;;
34102;SDS011;20381;54.498;18.206;2022-12-10T15:00:03;39.98;;;24.52;;
34102;SDS011;20381;54.498;18.206;2022-12-10T15:02:44;45.28;;;24.77;;
34102;SDS011;20381;54.498;18.206;2022-12-10T15:05:19;45.92;;;25.57;;
34102;SDS011;20381;54.498;18.206;2022-12-10T15:07:52;35.90;;;22.27;;
34102;SDS011;20381;54.498;18.206;2022-12-10T15:10:24;43.63;;;23.55;;
34102;SDS011;20381;54.498;18.206;2022-12-10T15:12:56;38.00;;;23.22;;
34102;SDS011;20381;54.498;18.206;2022-12-10T15:15:29;45.85;;;26.15;;
34102;SDS011;20381;54.498;18.206;2022-12-10T15:18:03;46.00;;;23.95;;
34102;SDS011;20381;54.498;18.206;2022-12-10T15:28:51;171.22;;;76.42;;
34102;SDS011;20381;54.498;18.206;2022-12-10T15:31:38;87.10;;;44.00;;
34102;SDS011;20381;54.498;18.206;2022-12-10T15:34:08;74.07;;;38.75;;
34102;SDS011;20381;54.498;18.206;2022-12-10T15:36:38;69.72;;;37.88;;
34102;SDS011;20381;54.498;18.206;2022-12-10T15:41:55;63.08;;;33.90;;
34102;SDS011;20381;54.498;18.206;2022-12-10T15:47:01;112.22;;;49.10;;
34102;SDS011;20381;54.498;18.206;2022-12-10T15:49:47;144.17;;;53.30;;
34102;SDS011;20381;54.498;18.206;2022-12-10T15:52:26;130.00;;;53.08;;
34102;SDS011;20381;54.498;18.206;2022-12-10T15:54:58;108.63;;;50.08;;
34102;SDS011;20381;54.498;18.206;2022-12-10T15:57:26;130.23;;;60.67;;
34102;SDS011;20381;54.498;18.206;2022-12-10T15:59:57;130.55;;;58.20;;
34102;SDS011;20381;54.498;18.206;2022-12-10T16:07:50;109.97;;;46.00;;
34102;SDS011;20381;54.498;18.206;2022-12-10T16:10:22;94.90;;;45.92;;
34102;SDS011;20381;54.498;18.206;2022-12-10T16:15:38;98.97;;;47.60;;
34102;SDS011;20381;54.498;18.206;2022-12-10T16:18:04;98.25;;;47.98;;
34102;SDS011;20381;54.498;18.206;2022-12-10T16:20:31;102.87;;;50.03;;
34102;SDS011;20381;54.498;18.206;2022-12-10T16:22:58;107.45;;;46.15;;
34102;SDS011;20381;54.498;18.206;2022-12-10T16:25:27;98.70;;;48.58;;
34102;SDS011;20381;54.498;18.206;2022-12-10T16:27:56;123.85;;;52.33;;
34102;SDS011;20381;54.498;18.206;2022-12-10T16:30:25;120.30;;;52.50;;
34102;SDS011;20381;54.498;18.206;2022-12-10T16:33:04;120.70;;;55.43;;
34102;SDS011;20381;54.498;18.206;2022-12-10T16:35:30;141.55;;;61.60;;
34102;SDS011;20381;54.498;18.206;2022-12-10T16:37:57;136.15;;;60.20;;
34102;SDS011;20381;54.498;18.206;2022-12-10T16:40:25;173.02;;;81.30;;
34102;SDS011;20381;54.498;18.206;2022-12-10T16:42:54;168.10;;;85.65;;
34102;SDS011;20381;54.498;18.206;2022-12-10T16:45:25;181.55;;;88.97;;
34102;SDS011;20381;54.498;18.206;2022-12-10T16:48:02;209.50;;;112.55;;
34102;SDS011;20381;54.498;18.206;2022-12-10T16:50:31;236.50;;;126.27;;
34102;SDS011;20381;54.498;18.206;2022-12-10T16:52:58;231.40;;;122.55;;
34102;SDS011;20381;54.498;18.206;2022-12-10T16:55:30;239.45;;;123.13;;
34102;SDS011;20381;54.498;18.206;2022-12-10T16:57:59;228.25;;;122.35;;
34102;SDS011;20381;54.498;18.206;2022-12-10T17:00:26;223.72;;;122.55;;
34102;SDS011;20381;54.498;18.206;2022-12-10T17:02:53;214.45;;;114.37;;
34102;SDS011;20381;54.498;18.206;2022-12-10T17:05:33;251.98;;;129.87;;
34102;SDS011;20381;54.498;18.206;2022-12-10T17:08:03;288.50;;;148.50;;
34102;SDS011;20381;54.498;18.206;2022-12-10T17:10:30;305.85;;;141.88;;
34102;SDS011;20381;54.498;18.206;2022-12-10T17:13:04;302.43;;;138.12;;
34102;SDS011;20381;54.498;18.206;2022-12-10T17:15:39;312.30;;;138.12;;
34102;SDS011;20381;54.498;18.206;2022-12-10T17:18:10;305.98;;;147.10;;
34102;SDS011;20381;54.498;18.206;2022-12-10T17:20:40;331.23;;;159.22;;
34102;SDS011;20381;54.498;18.206;2022-12-10T17:23:07;382.48;;;199.27;;
34102;SDS011;20381;54.498;18.206;2022-12-10T17:25:33;339.73;;;169.13;;
34102;SDS011;20381;54.498;18.206;2022-12-10T17:28:02;315.43;;;156.20;;
34102;SDS011;20381;54.498;18.206;2022-12-10T17:30:29;332.07;;;163.43;;
34102;SDS011;20381;54.498;18.206;2022-12-10T17:32:55;281.47;;;140.10;;
34102;SDS011;20381;54.498;18.206;2022-12-10T17:35:22;257.97;;;127.40;;
34102;SDS011;20381;54.498;18.206;2022-12-10T17:37:48;253.07;;;122.00;;
34102;SDS011;20381;54.498;18.206;2022-12-10T17:40:21;236.52;;;108.17;;
34102;SDS011;20381;54.498;18.206;2022-12-10T17:42:49;215.25;;;103.80;;
34102;SDS011;20381;54.498;18.206;2022-12-10T17:45:16;219.00;;;102.32;;
34102;SDS011;20381;54.498;18.206;2022-12-10T17:47:45;194.87;;;91.85;;
34102;SDS011;20381;54.498;18.206;2022-12-10T17:52:55;178.05;;;80.35;;
34102;SDS011;20381;54.498;18.206;2022-12-10T17:55:24;177.68;;;83.10;;
34102;SDS011;20381;54.498;18.206;2022-12-10T17:57:52;190.95;;;82.15;;
34102;SDS011;20381;54.498;18.206;2022-12-10T18:00:22;210.95;;;95.87;;
34102;SDS011;20381;54.498;18.206;2022-12-10T18:02:49;181.02;;;81.75;;
34102;SDS011;20381;54.498;18.206;2022-12-10T18:07:43;149.15;;;72.22;;
34102;SDS011;20381;54.498;18.206;2022-12-10T18:10:15;165.30;;;82.85;;
34102;SDS011;20381;54.498;18.206;2022-12-10T18:12:42;161.40;;;74.10;;
34102;SDS011;20381;54.498;18.206;2022-12-10T18:15:10;167.43;;;77.32;;
34102;SDS011;20381;54.498;18.206;2022-12-10T18:17:38;199.60;;;95.83;;
34102;SDS011;20381;54.498;18.206;2022-12-10T18:20:05;193.93;;;95.65;;
34102;SDS011;20381;54.498;18.206;2022-12-10T18:22:33;216.08;;;108.12;;
34102;SDS011;20381;54.498;18.206;2022-12-10T18:25:01;193.87;;;98.20;;
34102;SDS011;20381;54.498;18.206;2022-12-10T18:27:32;191.92;;;94.37;;
34102;SDS011;20381;54.498;18.206;2022-12-10T18:30:01;172.17;;;82.88;;
34102;SDS011;20381;54.498;18.206;2022-12-10T18:32:33;175.95;;;92.20;;
34102;SDS011;20381;54.498;18.206;2022-12-10T18:35:04;219.97;;;115.17;;
34102;SDS011;20381;54.498;18.206;2022-12-10T18:37:31;195.00;;;102.95;;
34102;SDS011;20381;54.498;18.206;2022-12-10T18:39:57;231.20;;;114.23;;
34102;SDS011;20381;54.498;18.206;2022-12-10T18:42:24;238.27;;;113.27;;
34102;SDS011;20381;54.498;18.206;2022-12-10T18:44:52;188.32;;;98.33;;
34102;SDS011;20381;54.498;18.206;2022-12-10T18:47:19;187.50;;;99.00;;
34102;SDS011;20381;54.498;18.206;2022-12-10T18:49:47;176.53;;;94.22;;
34102;SDS011;20381;54.498;18.206;2022-12-10T18:52:14;188.83;;;91.87;;
34102;SDS011;20381;54.498;18.206;2022-12-10T18:54:42;182.02;;;90.35;;
34102;SDS011;20381;54.498;18.206;2022-12-10T18:57:11;167.25;;;90.47;;
34102;SDS011;20381;54.498;18.206;2022-12-10T18:59:39;150.38;;;85.32;;
34102;SDS011;20381;54.498;18.206;2022-12-10T19:02:05;169.97;;;87.88;;
34102;SDS011;20381;54.498;18.206;2022-12-10T19:04:32;175.05;;;89.52;;
34102;SDS011;20381;54.498;18.206;2022-12-10T19:06:59;167.53;;;88.72;;
34102;SDS011;20381;54.498;18.206;2022-12-10T19:09:26;169.40;;;84.65;;
34102;SDS011;20381;54.498;18.206;2022-12-10T19:11:52;163.97;;;80.67;;
34102;SDS011;20381;54.498;18.206;2022-12-10T19:14:19;174.50;;;87.93;;
34102;SDS011;20381;54.498;18.206;2022-12-10T19:16:48;144.22;;;79.42;;
34102;SDS011;20381;54.498;18.206;2022-12-10T19:19:16;178.55;;;94.45;;
34102;SDS011;20381;54.498;18.206;2022-12-10T19:24:11;150.25;;;78.45;;
34102;SDS011;20381;54.498;18.206;2022-12-10T19:26:39;134.78;;;72.62;;